Time;durP1;ratioP1;P1;durP2;ratioP2;P2;SDS_P1;SDS_P2;PMS_P1;PMS_P2;Temp;Humidity;BMP_temperature;BMP_pressure;BME280_temperature;BME280_humidity;BME280_pressure;Samples;Min_cycle;Max_cycle;Signal;HPM_P1;HPM_P2
2024/04/09 00:01:48;;;;;;;;;12.00;12.00;;;;;12.43;100.00;99514.34;6280009;20;2791919;-39
2024/04/09 00:04:14;;;;;;;;;12.50;11.00;;;;;12.32;100.00;99512.38;6276735;20;2790019;-38
2024/04/09 00:06:42;;;;;;;;;11.00;11.00;;;;;12.12;100.00;99511.13;6276050;20;2789932;-39
2024/04/09 00:09:11;;;;;;;;;12.50;9.50;;;;;11.92;100.00;99503.59;6312277;20;2772243;-39
2024/04/09 00:11:38;;;;;;;;;13.67;11.67;;;;;11.63;100.00;99509.97;6278010;20;3528410;-38
2024/04/09 00:14:05;;;;;;;;;11.00;9.00;;;;;11.54;100.00;99502.56;6307833;20;2768043;-39
2024/04/09 00:16:33;;;;;;;;;15.00;13.50;;;;;11.32;100.00;99507.66;6280672;20;2809614;-39
2024/04/09 00:19:00;;;;;;;;;11.00;11.00;;;;;11.40;100.00;99503.50;6280429;20;2803465;-38
2024/04/09 00:21:30;;;;;;;;;11.33;8.33;;;;;11.83;100.00;99499.69;6275767;20;2769018;-39
2024/04/09 00:23:57;;;;;;;;;10.50;10.50;;;;;11.84;100.00;99506.78;6311119;20;2786821;-39
2024/04/09 00:26:29;;;;;;;;;10.00;10.00;;;;;12.06;100.00;99501.66;6275527;20;2789078;-38
2024/04/09 00:28:55;;;;;;;;;13.00;12.00;;;;;12.07;99.03;99511.44;6307955;20;2786827;-39
2024/04/09 00:31:24;;;;;;;;;9.67;9.67;;;;;11.91;100.00;99508.13;6277334;20;2768005;-39
2024/04/09 00:33:51;;;;;;;;;15.00;14.00;;;;;12.00;100.00;99502.06;6306338;20;2790920;-39
2024/04/09 00:36:19;;;;;;;;;15.00;12.00;;;;;11.56;100.00;99497.94;6279699;20;2807607;-38
2024/04/09 00:38:49;;;;;;;;;14.00;12.00;;;;;11.63;100.00;99493.84;6279072;20;2791129;-40
2024/04/09 00:41:16;;;;;;;;;14.00;13.00;;;;;11.67;100.00;99491.81;6278516;20;2806962;-39
2024/04/09 00:43:43;;;;;;;;;12.00;12.00;;;;;11.91;100.00;99488.44;6280295;20;2803506;-39
2024/04/09 00:46:11;;;;;;;;;10.50;9.00;;;;;11.94;100.00;99491.75;6278390;20;2775490;-38
2024/04/09 00:48:38;;;;;;;;;11.50;10.00;;;;;12.08;100.00;99494.34;6277294;20;2791964;-40
2024/04/09 00:51:06;;;;;;;;;11.67;11.67;;;;;11.84;100.00;99496.88;6275861;20;2803672;-39
2024/04/09 00:53:35;;;;;;;;;13.67;12.00;;;;;11.71;100.00;99495.16;6304413;20;3521122;-40
2024/04/09 00:56:05;;;;;;;;;11.40;9.80;;;;;11.49;100.00;99502.00;6328067;20;2789908;-42
2024/04/09 00:58:34;;;;;;;;;12.00;10.00;;;;;11.12;100.00;99488.38;6275066;20;2784714;-39
2024/04/09 01:01:01;;;;;;;;;12.00;11.00;;;;;10.84;100.00;99494.72;6278637;20;2797138;-40
2024/04/09 01:03:30;;;;;;;;;11.00;9.33;;;;;10.80;100.00;99490.53;6273855;20;2771133;-41
2024/04/09 01:05:57;;;;;;;;;12.00;10.00;;;;;10.85;100.00;99482.13;6304891;20;2783577;-42
2024/04/09 01:08:24;;;;;;;;;14.00;13.00;;;;;10.75;100.00;99492.66;6275822;20;2801519;-39
2024/04/09 01:10:51;;;;;;;;;10.00;10.00;;;;;10.85;100.00;99480.34;6275729;20;2791986;-39
2024/04/09 01:13:18;;;;;;;;;10.50;9.00;;;;;11.08;100.00;99492.22;6307129;20;2774282;-42
2024/04/09 01:15:46;;;;;;;;;12.80;11.40;;;;;11.32;100.00;99494.22;6300753;20;2786820;-39
2024/04/09 01:18:13;;;;;;;;;11.33;11.00;;;;;11.26;100.00;99491.97;6274692;20;2791933;-40
2024/04/09 01:20:40;;;;;;;;;11.00;10.00;;;;;11.04;100.00;99485.34;6308959;20;2794528;-38
2024/04/09 01:23:07;;;;;;;;;17.67;17.00;;;;;10.89;100.00;99487.22;6275615;20;3575300;-40
2024/04/09 01:25:34;;;;;;;;;15.50;15.00;;;;;10.86;100.00;99484.75;6304095;20;2491989;-40
2024/04/09 01:28:01;;;;;;;;;15.00;14.00;;;;;10.88;100.00;99482.81;6276747;20;2803411;-40
2024/04/09 01:30:28;;;;;;;;;12.33;12.33;;;;;10.97;100.00;99487.56;6275214;20;2799313;-39
2024/04/09 01:32:55;;;;;;;;;11.00;11.00;;;;;11.10;100.00;99490.31;6310185;20;2789926;-39
2024/04/09 01:35:23;;;;;;;;;11.00;11.00;;;;;10.83;100.00;99481.41;6276398;20;2790024;-38
2024/04/09 01:37:51;;;;;;;;;9.00;9.00;;;;;11.23;100.00;99495.72;6305140;20;2748202;-41
2024/04/09 01:40:18;;;;;;;;;10.00;9.50;;;;;11.10;100.00;99495.69;6305091;20;2760726;-39
2024/04/09 01:42:46;;;;;;;;;11.60;9.20;;;;;10.26;100.00;99498.44;6297176;20;2766941;-39
2024/04/09 01:45:13;;;;;;;;;13.00;11.00;;;;;10.59;100.00;99492.78;6278972;20;2781675;-39
2024/04/09 01:47:39;;;;;;;;;13.00;13.00;;;;;10.91;100.00;99500.56;6272774;20;2813834;-39
2024/04/09 01:50:10;;;;;;;;;14.33;13.33;;;;;10.83;100.00;99500.22;6274002;20;2805679;-38
2024/04/09 01:52:40;;;;;;;;;12.00;12.00;;;;;10.75;100.00;99501.56;6302736;20;2794162;-40
2024/04/09 01:55:08;;;;;;;;;12.00;11.00;;;;;10.90;100.00;99498.81;6303922;20;3521147;-38
2024/04/09 01:57:35;;;;;;;;;11.33;11.33;;;;;10.88;100.00;99490.88;6303446;20;2796350;-39
2024/04/09 02:00:11;;;;;;;;;13.00;12.67;;;;;10.38;100.00;99495.03;6304297;20;3527447;-38
2024/04/09 02:02:46;;;;;;;;;14.33;14.00;;;;;10.26;100.00;99498.44;6304637;20;3537767;-40
2024/04/09 02:05:14;;;;;;;;;17.00;15.67;;;;;10.48;100.00;99498.84;6304531;20;3558647;-39
2024/04/09 02:07:41;;;;;;;;;16.00;16.00;;;;;10.52;100.00;99504.88;6273429;20;3560824;-40
2024/04/09 02:10:10;;;;;;;;;12.20;12.20;;;;;10.18;100.00;99506.13;6300711;20;2810720;-46
2024/04/09 02:12:40;;;;;;;;;18.67;17.00;;;;;10.02;100.00;99501.72;6273646;20;2833589;-38
2024/04/09 02:15:08;;;;;;;;;15.00;15.00;;;;;9.83;100.00;99493.09;6303757;20;3538815;-38
2024/04/09 02:17:34;;;;;;;;;16.00;16.00;;;;;9.77;100.00;99491.66;6271749;20;2500280;-38
2024/04/09 02:20:03;;;;;;;;;14.67;14.67;;;;;10.22;100.00;99492.44;6273280;20;3531615;-39
2024/04/09 02:22:30;;;;;;;;;15.50;15.50;;;;;9.86;100.00;99488.38;6274011;20;2816154;-39
2024/04/09 02:24:57;;;;;;;;;15.00;14.00;;;;;9.80;100.00;99490.59;6276912;20;2803557;-39
2024/04/09 02:27:24;;;;;;;;;16.00;15.33;;;;;9.51;100.00;99484.34;6273887;20;3574413;-38
2024/04/09 02:29:52;;;;;;;;;14.33;14.33;;;;;9.53;100.00;99479.72;6271186;20;3532552;-38
2024/04/09 02:32:18;;;;;;;;;16.00;15.00;;;;;9.67;100.00;99479.75;6305288;20;2816950;-38
2024/04/09 02:34:45;;;;;;;;;15.00;15.00;;;;;9.60;100.00;99473.03;6273871;20;2811948;-38
2024/04/09 02:37:12;;;;;;;;;15.00;15.00;;;;;9.51;100.00;99470.94;6273388;20;3548212;-38
2024/04/09 02:39:39;;;;;;;;;20.50;17.00;;;;;9.50;100.00;99472.72;6270510;20;2492114;-38
2024/04/09 02:42:13;;;;;;;;;12.50;12.50;;;;;9.37;100.00;99478.00;6270257;20;3478455;-40
2024/04/09 02:44:40;;;;;;;;;13.67;13.67;;;;;9.53;100.00;99466.31;6302447;20;3516003;-38
2024/04/09 02:47:08;;;;;;;;;13.67;11.33;;;;;9.89;100.00;99473.94;6303673;20;3523235;-39
2024/04/09 02:49:35;;;;;;;;;16.00;14.33;;;;;9.73;100.00;99468.66;6299486;20;3535209;-39
2024/04/09 02:52:04;;;;;;;;;13.00;13.00;;;;;9.70;100.00;99478.72;6304203;20;3537743;-38
2024/04/09 02:54:30;;;;;;;;;11.50;10.50;;;;;9.77;100.00;99480.03;6300225;20;2794186;-38
2024/04/09 02:56:58;;;;;;;;;13.00;13.00;;;;;9.32;100.00;99469.38;6271015;20;3512761;-38
2024/04/09 02:59:25;;;;;;;;;11.00;11.00;;;;;9.77;100.00;99480.03;6300071;20;2789986;-39
2024/04/09 03:01:53;;;;;;;;;11.33;11.33;;;;;9.88;100.00;99481.13;6301887;20;3522264;-39
2024/04/09 03:04:19;;;;;;;;;10.00;10.00;;;;;9.31;100.00;99472.97;6298784;20;2653410;-39
2024/04/09 03:06:46;;;;;;;;;14.00;14.00;;;;;8.98;100.00;99482.06;6273052;20;2802369;-38
2024/04/09 03:09:13;;;;;;;;;16.00;14.00;;;;;9.32;100.00;99474.72;6268256;20;3540002;-39
2024/04/09 03:11:41;;;;;;;;;12.67;12.67;;;;;8.93;100.00;99477.94;6305566;20;3533596;-38
2024/04/09 03:14:11;;;;;;;;;12.50;12.50;;;;;9.14;100.00;99481.19;6305945;20;2805517;-39
2024/04/09 03:16:39;;;;;;;;;16.00;14.33;;;;;9.36;100.00;99480.75;6273236;20;3534770;-38
2024/04/09 03:19:06;;;;;;;;;14.33;13.33;;;;;9.78;100.00;99489.81;6299231;20;2804534;-39
2024/04/09 03:21:34;;;;;;;;;17.33;16.00;;;;;9.57;100.00;99483.97;6301715;20;3549203;-39
2024/04/09 03:24:02;;;;;;;;;14.67;13.33;;;;;9.14;100.00;99483.84;6301056;20;2793135;-39
2024/04/09 03:26:29;;;;;;;;;13.00;13.00;;;;;9.00;100.00;99480.19;6306897;20;2789943;-39
2024/04/09 03:28:56;;;;;;;;;14.67;14.67;;;;;9.15;100.00;99482.91;6272143;20;2806570;-39
2024/04/09 03:31:25;;;;;;;;;13.50;13.50;;;;;9.61;100.00;99485.47;6305962;20;2802356;-39
2024/04/09 03:33:54;;;;;;;;;15.00;12.80;;;;;9.47;100.00;99477.44;6297962;20;2799393;-39
2024/04/09 03:36:21;;;;;;;;;16.50;14.00;;;;;9.23;100.00;99475.25;6275893;20;2806940;-39
2024/04/09 03:38:49;;;;;;;;;16.67;15.00;;;;;9.01;100.00;99473.84;6271673;20;3546513;-38
2024/04/09 03:41:16;;;;;;;;;19.00;15.67;;;;;8.81;100.00;99481.31;6270722;20;3547304;-40
2024/04/09 03:43:44;;;;;;;;;17.00;17.00;;;;;9.54;100.00;99478.78;6270157;20;3561779;-39
2024/04/09 03:46:16;;;;;;;;;14.67;14.67;;;;;9.65;100.00;99487.88;6270602;20;3528488;-39
2024/04/09 03:48:48;;;;;;;;;15.00;15.00;;;;;9.66;100.00;99486.97;6299609;20;2492019;-39
2024/04/09 03:51:19;;;;;;;;;15.00;15.00;;;;;9.11;100.00;99484.91;6273547;20;2802841;-39
2024/04/09 03:53:47;;;;;;;;;18.67;14.67;;;;;8.81;100.00;99473.28;6267714;20;3540035;-39
2024/04/09 03:56:15;;;;;;;;;15.00;15.00;;;;;8.61;100.00;99477.09;6302639;20;3534720;-38
2024/04/09 03:58:46;;;;;;;;;15.33;13.33;;;;;8.45;100.00;99479.78;6269220;20;2807566;-39
2024/04/09 04:01:13;;;;;;;;;13.67;12.00;;;;;8.67;100.00;99484.78;6301393;20;3507630;-38
2024/04/09 04:03:48;;;;;;;;;13.00;13.00;;;;;8.60;100.00;99483.41;6304226;20;2802369;-38
2024/04/09 04:06:15;;;;;;;;;15.00;13.33;;;;;8.64;100.00;99493.00;6271282;20;2799420;-38
2024/04/09 04:08:44;;;;;;;;;13.33;11.00;;;;;8.43;100.00;99485.22;6301485;20;3522248;-39
2024/04/09 04:11:14;;;;;;;;;12.00;12.00;;;;;8.27;100.00;99489.69;6310368;20;2805498;-40
2024/04/09 04:13:41;;;;;;;;;13.00;13.00;;;;;8.23;100.00;99477.41;6278465;20;2805513;-39
2024/04/09 04:16:15;;;;;;;;;19.00;13.20;;;;;8.30;100.00;99473.47;6301603;20;2812825;-39
2024/04/09 04:18:44;;;;;;;;;14.33;12.33;;;;;8.30;100.00;99466.28;6275669;20;3536752;-39
2024/04/09 04:21:18;;;;;;;;;18.00;16.00;;;;;8.43;100.00;99479.03;6306398;20;2819045;-39
2024/04/09 04:23:51;;;;;;;;;19.00;13.33;;;;;8.66;100.00;99475.03;6276930;20;3547182;-38
2024/04/09 04:26:25;;;;;;;;;15.00;15.00;;;;;9.02;100.00;99477.38;6306636;20;2800358;-38
2024/04/09 04:28:54;;;;;;;;;14.00;13.50;;;;;8.82;100.00;99475.88;6277730;20;2792053;-39
2024/04/09 04:31:25;;;;;;;;;13.67;12.67;;;;;8.93;100.00;99481.47;6275462;20;3522251;-38
2024/04/09 04:33:52;;;;;;;;;15.00;13.00;;;;;8.96;100.00;99475.94;6311992;20;2790981;-39
2024/04/09 04:36:21;;;;;;;;;18.67;12.33;;;;;9.01;100.00;99478.34;6277290;20;3536745;-39
2024/04/09 04:38:48;;;;;;;;;14.50;14.50;;;;;8.77;100.00;99472.63;6308131;20;2807543;-39
2024/04/09 04:41:16;;;;;;;;;14.00;14.00;;;;;8.57;100.00;99471.06;6274330;20;3532618;-38
2024/04/09 04:43:44;;;;;;;;;16.67;15.00;;;;;8.98;100.00;99471.38;6307470;20;3547152;-39
2024/04/09 04:46:12;;;;;;;;;17.33;16.67;;;;;9.47;100.00;99472.94;6274270;20;3559741;-40
2024/04/09 04:48:39;;;;;;;;;18.50;15.50;;;;;9.79;100.00;99476.31;6274100;20;2819036;-39
2024/04/09 04:51:06;;;;;;;;;20.00;17.00;;;;;10.29;100.00;99477.69;6276723;20;3557585;-39
2024/04/09 04:53:33;;;;;;;;;18.00;18.00;;;;;10.47;100.00;99469.41;6274710;20;2830583;-39
2024/04/09 04:56:00;;;;;;;;;18.00;17.00;;;;;10.48;100.00;99473.84;6272845;20;2489922;-39
2024/04/09 04:58:27;;;;;;;;;18.67;18.67;;;;;11.05;100.00;99480.84;6274396;20;3559625;-41
2024/04/09 05:00:54;;;;;;;;;18.50;18.50;;;;;10.82;100.00;99474.28;6269973;20;2500335;-39
2024/04/09 05:03:22;;;;;;;;;15.33;13.00;;;;;10.70;100.00;99481.34;6275005;20;3529492;-39
2024/04/09 05:05:49;;;;;;;;;14.67;14.00;;;;;10.53;100.00;99474.38;6307828;20;3517971;-39
2024/04/09 05:08:18;;;;;;;;;18.00;16.00;;;;;10.46;100.00;99470.38;6305367;20;2821142;-39
2024/04/09 05:10:45;;;;;;;;;14.00;13.00;;;;;10.43;100.00;99473.28;6276684;20;2802546;-39
2024/04/09 05:13:12;;;;;;;;;22.00;19.00;;;;;10.66;100.00;99469.91;6274376;20;2839911;-38
2024/04/09 05:15:39;;;;;;;;;14.00;11.00;;;;;10.68;100.00;99473.38;6276301;20;2804450;-39
2024/04/09 05:18:08;;;;;;;;;16.00;15.00;;;;;11.17;100.00;99480.03;6306084;20;2819119;-40
2024/04/09 05:20:36;;;;;;;;;19.00;17.00;;;;;10.85;100.00;99468.72;6271548;20;2494111;-40
2024/04/09 05:23:03;;;;;;;;;21.00;19.00;;;;;10.82;100.00;99468.91;6273525;20;2500297;-39
2024/04/09 05:25:32;;;;;;;;;22.33;18.67;;;;;10.72;100.00;99468.69;6275204;20;3571180;-39
2024/04/09 05:27:59;;;;;;;;;20.67;18.00;;;;;11.52;100.00;99471.38;6275705;20;3571107;-39
2024/04/09 05:30:26;;;;;;;;;23.00;18.50;;;;;11.72;100.00;99473.53;6274305;20;2498164;-39
2024/04/09 05:32:54;;;;;;;;;17.00;16.00;;;;;11.76;100.00;99476.88;6274564;20;2828429;-39
2024/04/09 05:35:20;;;;;;;;;16.00;15.50;;;;;11.09;100.00;99467.09;6274032;20;2804459;-40
2024/04/09 05:37:49;;;;;;;;;20.00;18.00;;;;;10.91;100.00;99462.97;6273988;20;2839884;-39
2024/04/09 05:40:18;;;;;;;;;27.00;23.33;;;;;11.15;100.00;99465.81;6275103;20;2845174;-40
2024/04/09 05:42:46;;;;;;;;;35.33;32.33;;;;;11.92;100.00;99471.31;6307601;20;3604470;-39
2024/04/09 05:45:20;;;;;;;;;52.00;42.50;;;;;12.05;100.00;99478.41;6273558;20;2844056;-43
2024/04/09 05:47:48;;;;;;;;;73.33;56.67;;;;;12.23;100.00;99486.13;6275940;20;3634642;-40
2024/04/09 05:50:17;;;;;;;;;73.33;59.67;;;;;12.11;100.00;99482.47;6305437;20;3638826;-40
2024/04/09 05:52:46;;;;;;;;;58.00;46.00;;;;;12.61;98.69;99485.19;6304789;20;3620186;-40
2024/04/09 05:55:14;;;;;;;;;29.33;25.00;;;;;13.00;96.00;99494.00;6306526;20;2864938;-40
2024/04/09 05:57:42;;;;;;;;;31.00;29.33;;;;;12.99;95.12;99492.28;6306397;20;3591971;-40
2024/04/09 06:00:14;;;;;;;;;20.00;18.50;;;;;13.25;93.28;99490.31;6273300;20;2835703;-40
2024/04/09 06:02:45;;;;;;;;;21.00;16.50;;;;;13.36;93.28;99496.63;6272852;20;2826431;-39
2024/04/09 06:05:16;;;;;;;;;26.67;25.33;;;;;13.23;94.73;99497.66;6274073;20;2856418;-39
2024/04/09 06:07:45;;;;;;;;;71.33;61.33;;;;;12.74;100.00;99488.69;6304871;20;3630552;-39
2024/04/09 06:10:15;;;;;;;;;66.00;52.33;;;;;12.70;100.00;99492.59;6308766;20;3624218;-40
2024/04/09 06:12:43;;;;;;;;;46.00;38.00;;;;;13.08;100.00;99499.66;6272389;20;2869119;-40
2024/04/09 06:15:11;;;;;;;;;20.67;20.67;;;;;13.25;100.00;99493.03;6307514;20;3579411;-41
2024/04/09 06:17:38;;;;;;;;;22.00;21.00;;;;;13.48;98.30;99491.28;6270117;20;2487809;-40
2024/04/09 06:20:05;;;;;;;;;18.00;17.00;;;;;13.98;96.53;99489.16;6273014;20;2496154;-39
2024/04/09 06:22:33;;;;;;;;;17.00;15.67;;;;;14.12;91.64;99488.97;6274705;20;3560675;-39
2024/04/09 06:25:00;;;;;;;;;15.00;11.00;;;;;14.53;89.75;99490.19;6270693;20;2491946;-41
2024/04/09 06:27:27;;;;;;;;;12.00;12.00;;;;;14.88;87.49;99495.44;6273545;20;3528793;-39
2024/04/09 06:29:54;;;;;;;;;18.50;14.50;;;;;14.63;85.78;99501.13;6274811;20;2815961;-40
2024/04/09 06:32:22;;;;;;;;;14.67;14.00;;;;;14.85;86.98;99501.09;6270681;20;3537947;-40
2024/04/09 06:34:50;;;;;;;;;14.33;11.67;;;;;14.87;85.82;99504.50;6273033;20;3519005;-39
2024/04/09 06:37:18;;;;;;;;;13.00;13.00;;;;;15.04;86.63;99497.72;6306583;20;3533053;-40
2024/04/09 06:39:44;;;;;;;;;13.50;11.50;;;;;15.41;84.87;99504.59;6273625;20;2805498;-39
2024/04/09 06:42:12;;;;;;;;;13.67;13.00;;;;;15.11;83.65;99489.94;6274063;20;2804656;-40
2024/04/09 06:44:39;;;;;;;;;16.00;12.00;;;;;15.72;83.34;99494.75;6303702;20;3530289;-40
2024/04/09 06:47:06;;;;;;;;;12.00;10.33;;;;;15.61;81.60;99497.47;6305838;20;3513851;-40
2024/04/09 06:49:34;;;;;;;;;12.00;10.00;;;;;15.93;78.64;99503.72;6303955;20;2790172;-40
2024/04/09 06:52:02;;;;;;;;;11.00;11.00;;;;;16.18;79.31;99502.44;6305000;20;3515942;-40
2024/04/09 06:54:29;;;;;;;;;14.00;12.67;;;;;16.52;74.46;99509.44;6303461;20;3532561;-40
2024/04/09 06:56:57;;;;;;;;;13.33;12.67;;;;;17.33;71.52;99505.63;6273890;20;3513208;-39
2024/04/09 06:59:26;;;;;;;;;8.80;8.80;;;;;17.86;69.43;99512.50;6330782;20;2767051;-40
2024/04/09 07:01:53;;;;;;;;;12.00;9.00;;;;;17.90;68.91;99523.91;6273277;20;2774285;-40
2024/04/09 07:04:22;;;;;;;;;10.00;10.00;;;;;17.75;69.80;99516.19;6329710;20;2796120;-40
2024/04/09 07:06:49;;;;;;;;;8.50;8.00;;;;;18.75;66.76;99508.53;6278527;20;2740935;-41
2024/04/09 07:09:20;;;;;;;;;5.00;2.50;;;;;18.13;65.49;99509.00;6277716;20;2738887;-40
2024/04/09 07:11:47;;;;;;;;;8.00;6.00;;;;;18.77;63.97;99501.03;6281117;20;2736781;-40
2024/04/09 07:14:14;;;;;;;;;6.00;5.00;;;;;18.26;65.03;99499.69;6281401;20;2733622;-39
2024/04/09 07:16:43;;;;;;;;;4.00;4.00;;;;;18.54;64.07;99487.84;6280792;20;2748275;-41
2024/04/09 07:19:11;;;;;;;;;4.40;4.40;;;;;18.79;61.24;99490.88;6300759;20;2739936;-40
2024/04/09 07:21:40;;;;;;;;;5.40;5.40;;;;;18.32;62.06;99501.78;6332736;20;2747182;-40
2024/04/09 07:24:11;;;;;;;;;5.20;5.20;;;;;19.38;60.76;99505.81;6331568;20;2747270;-39
2024/04/09 07:26:39;;;;;;;;;7.00;5.40;;;;;19.58;60.61;99506.50;6330281;20;2737782;-40
2024/04/09 07:29:08;;;;;;;;;5.20;5.20;;;;;19.64;59.56;99500.44;6330833;20;2744115;-43
2024/04/09 07:31:36;;;;;;;;;5.00;5.00;;;;;20.47;56.35;99513.63;6330732;20;2740976;-39
2024/04/09 07:34:04;;;;;;;;;3.00;3.00;;;;;20.44;55.57;99513.13;6308962;20;2737796;-40
2024/04/09 07:36:33;;;;;;;;;5.00;4.00;;;;;20.42;54.17;99515.13;6327103;20;2738821;-40
2024/04/09 07:39:03;;;;;;;;;4.20;4.20;;;;;20.52;54.95;99515.88;6331520;20;2744041;-40
2024/04/09 07:41:31;;;;;;;;;4.80;4.80;;;;;20.63;54.43;99514.78;6330391;20;2742039;-39
2024/04/09 07:43:58;;;;;;;;;4.33;4.33;;;;;20.62;54.16;99511.19;6311071;20;2743017;-40
2024/04/09 07:46:27;;;;;;;;;5.00;5.00;;;;;20.61;51.84;99510.31;6330170;20;2754513;-40
2024/04/09 07:48:59;;;;;;;;;4.00;4.00;;;;;21.71;50.82;99513.03;6301100;20;2750386;-38
2024/04/09 07:51:28;;;;;;;;;5.40;3.00;;;;;20.59;50.16;99506.06;6336606;20;2756316;-41
2024/04/09 07:53:57;;;;;;;;;3.60;3.60;;;;;20.62;50.30;99522.09;6303105;20;2743040;-40
2024/04/09 07:56:26;;;;;;;;;5.60;2.80;;;;;21.23;49.08;99520.09;6336408;20;2733671;-40
2024/04/09 07:58:54;;;;;;;;;4.00;4.00;;;;;21.11;48.91;99519.53;6336994;20;2749321;-40
2024/04/09 08:01:23;;;;;;;;;4.00;4.00;;;;;21.57;48.40;99511.81;6302110;20;2756562;-40
2024/04/09 08:03:51;;;;;;;;;3.60;3.00;;;;;21.49;48.34;99506.34;6305735;20;2745157;-41
2024/04/09 08:06:19;;;;;;;;;3.00;3.00;;;;;22.07;46.47;99505.31;6336364;20;2746124;-41
2024/04/09 08:08:49;;;;;;;;;3.40;3.40;;;;;21.66;45.48;99509.94;6303126;20;2741707;-40
2024/04/09 08:11:19;;;;;;;;;3.40;3.40;;;;;21.86;45.90;99494.06;6337270;20;2744062;-39
2024/04/09 08:13:46;;;;;;;;;3.33;3.33;;;;;22.74;45.33;99501.41;6280070;20;2755532;-40
2024/04/09 08:16:15;;;;;;;;;3.20;3.20;;;;;22.44;45.28;99503.91;6330996;20;2753407;-39
2024/04/09 08:18:43;;;;;;;;;4.00;4.00;;;;;22.77;45.08;99493.66;6302780;20;2746190;-40
2024/04/09 08:21:11;;;;;;;;;4.00;3.00;;;;;22.23;46.11;99495.41;6303283;20;2741964;-40
2024/04/09 08:23:38;;;;;;;;;4.00;4.00;;;;;23.09;45.73;99490.97;6281651;20;2738848;-40
2024/04/09 08:26:08;;;;;;;;;2.00;2.00;;;;;22.68;44.76;99489.28;6336806;20;2744121;-41
2024/04/09 08:28:37;;;;;;;;;5.20;4.00;;;;;22.07;45.21;99483.44;6333678;20;2752451;-41
2024/04/09 08:31:07;;;;;;;;;4.60;3.40;;;;;23.03;44.24;99487.09;6304819;20;2756584;-41
2024/04/09 08:33:37;;;;;;;;;4.80;3.00;;;;;22.83;44.55;99483.91;6302260;20;2749302;-39
2024/04/09 08:36:07;;;;;;;;;2.00;2.00;;;;;23.10;43.85;99476.28;6352675;20;3455620;-39
2024/04/09 08:38:35;;;;;;;;;2.40;2.40;;;;;22.51;45.07;99472.09;6333027;20;2731606;-40
2024/04/09 08:41:08;;;;;;;;;2.50;2.25;;;;;22.98;43.52;99473.91;6315271;20;3448192;-41
2024/04/09 08:43:38;;;;;;;;;3.80;2.80;;;;;23.76;42.89;99471.19;6334338;20;2746167;-40
2024/04/09 08:46:10;;;;;;;;;3.00;3.00;;;;;23.92;41.82;99475.69;6334684;20;2744115;-40
2024/04/09 08:48:40;;;;;;;;;2.00;2.00;;;;;24.19;43.34;99471.44;6303353;20;2733751;-41
2024/04/09 08:51:10;;;;;;;;;2.40;1.00;;;;;23.09;43.03;99463.59;6333599;20;2746132;-41
2024/04/09 08:53:39;;;;;;;;;5.20;3.00;;;;;24.22;42.21;99466.44;6301051;20;2753420;-41
2024/04/09 08:56:07;;;;;;;;;2.00;2.00;;;;;23.66;42.12;99466.78;6298935;20;2736198;-42
2024/04/09 08:58:36;;;;;;;;;4.20;2.40;;;;;22.86;43.17;99474.50;6334692;20;2737871;-43
2024/04/09 09:01:04;;;;;;;;;3.00;3.00;;;;;22.48;43.35;99466.94;6304402;20;2752353;-44
2024/04/09 09:03:32;;;;;;;;;3.20;2.60;;;;;23.40;42.81;99467.16;6303017;20;2752386;-41
2024/04/09 09:06:04;;;;;;;;;4.80;3.60;;;;;23.07;42.36;99460.22;6303114;20;2755025;-41
2024/04/09 09:08:42;;;;;;;;;3.00;3.00;;;;;23.44;42.05;99465.75;6277429;20;2745141;-40
2024/04/09 09:11:11;;;;;;;;;4.00;4.00;;;;;24.08;41.26;99459.91;6336301;20;2732617;-42
2024/04/09 09:13:39;;;;;;;;;3.40;3.40;;;;;24.08;41.27;99454.41;6332503;20;2743034;-42
2024/04/09 09:16:11;;;;;;;;;8.20;2.60;;;;;24.40;40.55;99456.97;6332747;20;2750334;-40
2024/04/09 09:18:39;;;;;;;;;2.80;2.80;;;;;23.87;41.60;99457.03;6300670;20;2754584;-41
2024/04/09 09:21:07;;;;;;;;;5.40;3.80;;;;;24.60;41.68;99454.56;6302624;20;2744106;-39
2024/04/09 09:23:36;;;;;;;;;5.00;3.40;;;;;24.92;39.73;99454.13;6301354;20;2746195;-42
2024/04/09 09:26:06;;;;;;;;;4.00;4.00;;;;;24.44;41.09;99455.56;6304241;20;2742044;-40
2024/04/09 09:28:33;;;;;;;;;6.33;5.00;;;;;24.18;41.72;99458.78;6280252;20;2742987;-42
2024/04/09 09:31:01;;;;;;;;;5.60;4.40;;;;;23.84;41.33;99457.41;6336658;20;2743027;-43
2024/04/09 09:33:31;;;;;;;;;12.67;12.67;;;;;24.41;41.77;99447.69;6277347;20;3541959;-41
2024/04/09 09:36:00;;;;;;;;;23.00;20.00;;;;;24.38;41.63;99450.81;6306373;20;3589865;-42
2024/04/09 09:38:28;;;;;;;;;32.67;29.00;;;;;25.15;40.80;99456.75;6306035;20;3587873;-41
2024/04/09 09:40:57;;;;;;;;;5.33;5.33;;;;;24.84;41.10;99445.16;6278707;20;2741974;-42
2024/04/09 09:43:26;;;;;;;;;13.00;11.00;;;;;24.26;40.93;99445.81;6307767;20;2803437;-41
2024/04/09 09:45:54;;;;;;;;;6.67;6.67;;;;;25.37;39.37;99438.34;6281557;20;2752415;-41
2024/04/09 09:48:24;;;;;;;;;19.00;19.00;;;;;24.02;41.69;99432.38;6304238;20;3595068;-41
2024/04/09 09:50:51;;;;;;;;;27.33;25.33;;;;;24.97;40.50;99437.91;6311833;20;3586717;-42
2024/04/09 09:53:20;;;;;;;;;23.00;23.00;;;;;25.05;40.33;99422.34;6275436;20;3587892;-41
2024/04/09 09:55:55;;;;;;;;;11.00;11.00;;;;;24.34;41.19;99420.19;6273776;20;3510752;-41
2024/04/09 09:58:30;;;;;;;;;19.00;17.67;;;;;25.44;39.70;99421.94;6310862;20;2831533;-41
2024/04/09 10:01:04;;;;;;;;;27.67;27.67;;;;;24.94;41.22;99423.72;6305848;20;3593037;-41
2024/04/09 10:03:32;;;;;;;;;9.00;9.00;;;;;26.16;39.78;99420.84;6274131;20;3473185;-41
2024/04/09 10:05:59;;;;;;;;;4.00;4.00;;;;;25.62;40.00;99424.22;6308650;20;2744176;-42
2024/04/09 10:08:28;;;;;;;;;21.00;19.00;;;;;25.59;39.20;99419.97;6306877;20;2828487;-41
2024/04/09 10:10:56;;;;;;;;;12.00;10.00;;;;;24.25;40.92;99416.69;6275206;20;3508779;-41
2024/04/09 10:13:25;;;;;;;;;7.67;7.00;;;;;25.15;41.33;99417.41;6309874;20;2744037;-42
2024/04/09 10:16:00;;;;;;;;;7.60;6.00;;;;;24.56;39.91;99412.88;6331310;20;2732591;-40
2024/04/09 10:18:40;;;;;;;;;6.00;6.00;;;;;24.71;40.67;99413.72;6308643;20;2740964;-41
2024/04/09 10:21:09;;;;;;;;;8.33;8.00;;;;;25.66;39.21;99402.66;6308938;20;2747192;-40
2024/04/09 10:23:39;;;;;;;;;6.40;6.40;;;;;25.41;38.92;99411.34;6330769;20;2742014;-40
2024/04/09 10:26:11;;;;;;;;;4.00;4.00;;;;;25.70;38.99;99406.69;6275595;20;2744027;-41
2024/04/09 10:28:38;;;;;;;;;3.00;3.00;;;;;26.37;39.04;99411.63;6308361;20;2745285;-40
2024/04/09 10:31:13;;;;;;;;;5.00;5.00;;;;;25.73;39.04;99409.94;6334354;20;2748240;-41
2024/04/09 10:33:41;;;;;;;;;6.00;4.60;;;;;26.33;38.45;99410.38;6301058;20;2738821;-41
2024/04/09 10:36:11;;;;;;;;;3.00;3.00;;;;;25.15;39.82;99407.28;6301783;20;2749721;-41
2024/04/09 10:38:43;;;;;;;;;4.20;4.20;;;;;25.98;37.85;99412.25;6300546;20;2741993;-41
2024/04/09 10:41:12;;;;;;;;;5.40;4.40;;;;;26.23;38.26;99409.88;6299515;20;2737798;-40
2024/04/09 10:43:39;;;;;;;;;7.33;6.00;;;;;25.43;38.77;99414.72;6308530;20;2744153;-41
2024/04/09 10:46:08;;;;;;;;;4.60;3.40;;;;;25.36;39.00;99405.59;6332349;20;2748260;-41
2024/04/09 10:48:35;;;;;;;;;6.00;6.00;;;;;25.58;39.60;99411.91;6284811;20;2744050;-41
2024/04/09 10:51:04;;;;;;;;;4.00;4.00;;;;;25.84;39.96;99403.06;6332453;20;2743020;-41
2024/04/09 10:53:35;;;;;;;;;8.67;6.00;;;;;25.48;38.16;99395.75;6277365;20;2732629;-45
2024/04/09 10:56:04;;;;;;;;;7.80;5.00;;;;;25.63;39.37;99388.25;6327895;20;2746130;-40
2024/04/09 10:58:31;;;;;;;;;5.67;5.67;;;;;26.19;38.57;99389.31;6277552;20;2738838;-42
2024/04/09 11:01:00;;;;;;;;;5.20;4.20;;;;;26.23;38.98;99382.34;6331016;20;2741945;-41
2024/04/09 11:03:28;;;;;;;;;5.00;3.20;;;;;26.23;38.51;99382.34;6302650;20;2743133;-41
2024/04/09 11:05:57;;;;;;;;;3.00;3.00;;;;;26.23;38.48;99376.84;6301095;20;2746158;-41
2024/04/09 11:08:31;;;;;;;;;4.00;4.00;;;;;25.70;38.30;99365.44;6302481;20;2729444;-42
2024/04/09 11:11:00;;;;;;;;;3.00;3.00;;;;;25.93;39.83;99365.22;6300424;20;2747163;-44